createdAt,value
2019-03-20T00:02:30.540Z,87.63
2019-03-20T00:05:08.647Z,87.25
2019-03-20T00:07:39.033Z,88.90
2019-03-20T00:10:15.170Z,89.44
2019-03-20T00:12:53.169Z,89.44
2019-03-20T00:15:26.756Z,88.54
2019-03-20T00:17:57.504Z,88.54
2019-03-20T00:20:31.261Z,88.49
2019-03-20T00:23:08.420Z,88.54
2019-03-20T00:25:41.707Z,89.17
2019-03-20T00:28:12.583Z,89.17
2019-03-20T00:30:44.700Z,88.79
2019-03-20T00:33:20.474Z,88.71
2019-03-20T00:36:01.115Z,89.02
2019-03-20T00:38:35.359Z,89.53
2019-03-20T00:41:07.030Z,89.75
2019-03-20T00:43:47.774Z,89.87
2019-03-20T00:46:26.451Z,89.60
2019-03-20T00:48:59.286Z,89.26
2019-03-20T00:51:30.114Z,89.23
2019-03-20T00:54:05.957Z,89.43
2019-03-20T00:56:39.551Z,89.09
2019-03-20T01:03:34.522Z,88.04
2019-03-20T01:06:46.509Z,88.58
2019-03-20T01:09:24.020Z,87.64
2019-03-20T01:12:11.092Z,87.64
2019-03-20T01:14:42.755Z,88.36
2019-03-20T01:17:16.366Z,87.79
2019-03-20T01:19:57.353Z,87.36
2019-03-20T01:22:38.418Z,87.70
2019-03-20T01:25:22.407Z,87.63
2019-03-20T01:27:55.771Z,86.57
2019-03-20T01:30:36.805Z,86.57
2019-03-20T01:33:13.988Z,87.46
2019-03-20T01:35:50.003Z,86.39
2019-03-20T01:38:22.566Z,86.39
2019-03-20T01:41:07.620Z,86.86
2019-03-20T01:43:42.893Z,86.97
2019-03-20T01:46:15.494Z,86.73
2019-03-20T01:48:47.570Z,86.16
2019-03-20T01:51:22.545Z,85.62
2019-03-20T01:54:00.106Z,85.59
2019-03-20T01:56:32.772Z,85.57
2019-03-20T01:59:06.674Z,86.09
2019-03-20T02:01:39.696Z,86.66
2019-03-20T02:04:15.413Z,86.66
2019-03-20T02:07:02.319Z,86.41
2019-03-20T02:09:39.648Z,86.65
2019-03-20T02:12:15.321Z,86.84
2019-03-20T02:14:48.561Z,86.80
2019-03-20T02:17:21.854Z,87.36
2019-03-20T02:19:56.116Z,87.81
2019-03-20T02:22:29.631Z,86.98
2019-03-20T02:25:01.902Z,87.15
2019-03-20T02:27:37.683Z,87.92
2019-03-20T02:30:26.763Z,87.92
2019-03-20T02:33:01.744Z,88.59
2019-03-20T02:35:52.357Z,88.15
2019-03-20T02:38:27.123Z,88.15
2019-03-20T02:41:05.851Z,87.60
2019-03-20T02:43:38.941Z,87.60
2019-03-20T02:46:15.594Z,88.17
2019-03-20T02:48:53.301Z,88.17
2019-03-20T02:51:37.258Z,88.36
2019-03-20T02:54:28.167Z,88.36
2019-03-20T02:57:11.863Z,88.58
2019-03-20T02:59:44.288Z,89.06
2019-03-20T03:02:18.911Z,89.06
2019-03-20T03:04:53.344Z,88.01
2019-03-20T03:07:27.560Z,88.40
2019-03-20T03:09:59.265Z,88.40
2019-03-20T03:12:32.102Z,87.45
2019-03-20T03:15:04.483Z,87.45
2019-03-20T03:17:35.687Z,87.76
2019-03-20T03:20:12.669Z,87.84
2019-03-20T03:22:43.021Z,87.86
2019-03-20T03:25:16.083Z,88.39
2019-03-20T03:27:49.264Z,87.55
2019-03-20T03:30:21.778Z,87.31
2019-03-20T03:32:52.897Z,87.40
2019-03-20T03:35:25.000Z,87.30
2019-03-20T03:37:57.248Z,87.58
2019-03-20T03:40:28.378Z,87.98
2019-03-20T03:42:59.551Z,87.98
2019-03-20T03:45:32.280Z,87.71
2019-03-20T03:48:06.141Z,87.71
2019-03-20T03:50:39.583Z,87.97
2019-03-20T03:53:15.557Z,87.71
2019-03-20T03:55:49.822Z,87.29
2019-03-20T03:58:21.177Z,88.55
2019-03-20T04:00:53.531Z,88.55
2019-03-20T04:03:41.533Z,88.66
2019-03-20T04:06:17.104Z,88.97
2019-03-20T04:08:50.935Z,89.59
2019-03-20T04:11:22.737Z,89.59
2019-03-20T04:13:53.481Z,89.64
2019-03-20T04:16:38.380Z,89.56
2019-03-20T04:19:15.207Z,89.63
2019-03-20T04:21:48.162Z,89.34
2019-03-20T04:24:21.945Z,89.66
2019-03-20T04:26:54.243Z,89.80
2019-03-20T04:29:26.925Z,90.12
2019-03-20T04:32:03.271Z,90.29
2019-03-20T04:34:41.386Z,91.00
2019-03-20T04:37:22.964Z,91.00
2019-03-20T04:39:53.557Z,91.00
2019-03-20T04:42:27.866Z,90.13
2019-03-20T04:45:04.906Z,90.13
2019-03-20T04:47:41.313Z,90.73
2019-03-20T04:50:20.436Z,90.71
2019-03-20T04:52:54.418Z,90.40
2019-03-20T04:55:26.386Z,90.81
2019-03-20T04:57:58.437Z,90.81
2019-03-20T05:00:29.966Z,90.63
2019-03-20T05:03:06.486Z,90.19
2019-03-20T05:05:38.863Z,90.41
2019-03-20T05:08:09.158Z,90.95
2019-03-20T05:10:42.911Z,90.27
2019-03-20T05:13:16.160Z,90.19
2019-03-20T05:15:47.955Z,90.64
2019-03-20T05:18:22.112Z,90.37
2019-03-20T05:20:58.283Z,90.37
2019-03-20T05:23:31.396Z,90.83
2019-03-20T05:26:04.506Z,90.83
2019-03-20T05:28:34.546Z,91.21
2019-03-20T05:31:04.542Z,91.21
2019-03-20T05:33:34.710Z,90.28
2019-03-20T05:36:08.087Z,90.28
2019-03-20T05:38:40.404Z,91.06
2019-03-20T05:41:11.116Z,90.46
2019-03-20T05:43:44.451Z,90.46
2019-03-20T05:46:14.627Z,89.68
2019-03-20T05:48:44.750Z,89.62
2019-03-20T05:51:16.537Z,89.68
2019-03-20T05:54:00.921Z,89.12
2019-03-20T05:56:36.160Z,88.89
2019-03-20T05:59:06.144Z,88.37
2019-03-20T06:01:36.326Z,85.62
2019-03-20T06:04:06.792Z,83.85
2019-03-20T06:06:38.092Z,80.74
2019-03-20T06:09:12.187Z,79.54
2019-03-20T06:11:43.183Z,77.05
2019-03-20T06:14:20.509Z,75.84
2019-03-20T06:17:11.006Z,74.86
2019-03-20T06:19:53.853Z,74.05
2019-03-20T06:22:40.771Z,72.47
2019-03-20T06:25:27.728Z,71.63
2019-03-20T06:28:16.874Z,70.47
2019-03-20T06:31:10.061Z,68.98
2019-03-20T06:33:43.563Z,67.61
2019-03-20T06:36:20.749Z,67.56
2019-03-20T06:39:04.827Z,68.93
2019-03-20T06:41:34.333Z,70.28
2019-03-20T06:44:06.550Z,70.15
2019-03-20T06:46:43.213Z,70.44
2019-03-20T06:49:14.183Z,70.77
2019-03-20T06:51:46.306Z,70.34
2019-03-20T06:54:19.286Z,70.56
2019-03-20T06:56:50.806Z,71.22
2019-03-20T06:59:29.992Z,72.03
2019-03-20T07:02:16.543Z,71.96
2019-03-20T07:05:12.063Z,71.99
2019-03-20T07:07:45.780Z,70.18
2019-03-20T07:10:48.535Z,71.78
2019-03-20T07:13:22.095Z,72.43
2019-03-20T07:15:54.451Z,69.55
2019-03-20T07:18:25.736Z,68.46
2019-03-20T07:20:57.263Z,67.82
2019-03-20T07:23:31.267Z,65.51
2019-03-20T07:26:08.440Z,67.29
2019-03-20T07:28:41.589Z,68.11
2019-03-20T07:31:15.520Z,65.58
2019-03-20T07:33:45.444Z,64.52
2019-03-20T07:36:15.790Z,61.13
2019-03-20T07:38:45.740Z,62.51
2019-03-20T07:41:16.526Z,64.10
2019-03-20T07:43:47.848Z,61.23
2019-03-20T07:46:18.617Z,60.53
2019-03-20T07:48:50.057Z,60.43
2019-03-20T07:51:21.322Z,59.69
2019-03-20T07:53:52.107Z,61.53
2019-03-20T07:56:27.243Z,59.51
2019-03-20T07:59:00.051Z,59.59
2019-03-20T08:01:33.559Z,57.98
2019-03-20T08:04:04.760Z,60.22
2019-03-20T08:06:35.311Z,60.11
2019-03-20T08:09:11.005Z,59.62
2019-03-20T08:11:41.773Z,58.62
2019-03-20T08:14:12.165Z,55.17
2019-03-20T08:16:42.317Z,57.53
2019-03-20T08:19:14.349Z,58.41
2019-03-20T08:21:45.964Z,54.87
2019-03-20T08:24:15.900Z,54.12
2019-03-20T08:26:47.165Z,56.27
2019-03-20T08:29:17.456Z,55.77
2019-03-20T08:31:49.019Z,55.28
2019-03-20T08:34:19.222Z,55.16
2019-03-20T08:36:49.479Z,53.86
2019-03-20T08:39:20.952Z,54.22
2019-03-20T08:41:52.089Z,55.30
2019-03-20T08:44:22.755Z,57.08
2019-03-20T08:46:53.109Z,55.61
2019-03-20T08:49:23.082Z,53.28
2019-03-20T08:51:54.337Z,56.71
2019-03-20T08:54:24.462Z,55.93
2019-03-20T08:56:54.843Z,54.96
2019-03-20T08:59:25.264Z,54.35
2019-03-20T09:01:56.678Z,52.40
2019-03-20T09:04:26.782Z,53.13
2019-03-20T09:06:57.898Z,53.65
2019-03-20T09:09:29.127Z,48.53
2019-03-20T09:11:59.942Z,48.82
2019-03-20T09:14:31.579Z,48.77
2019-03-20T09:17:01.964Z,46.94
2019-03-20T09:19:32.716Z,44.95
2019-03-20T09:22:04.507Z,44.71
2019-03-20T09:24:34.956Z,47.07
2019-03-20T09:27:11.332Z,47.22
2019-03-20T09:29:42.409Z,47.98
2019-03-20T09:32:15.023Z,53.53
2019-03-20T09:34:58.237Z,53.13
2019-03-20T09:37:31.000Z,52.21
2019-03-20T09:40:00.915Z,54.35
2019-03-20T09:56:33.131Z,46.67
2019-03-20T09:59:03.245Z,46.81
2019-03-20T10:01:33.491Z,46.01
2019-03-20T10:04:03.841Z,46.63
2019-03-20T10:06:38.223Z,45.74
2019-03-20T10:09:11.716Z,43.87
2019-03-20T10:11:42.005Z,44.43
2019-03-20T10:14:13.135Z,45.08
2019-03-20T10:16:45.867Z,45.93
2019-03-20T10:19:16.185Z,44.14
2019-03-20T10:21:46.465Z,43.65
2019-03-20T10:24:18.099Z,44.03
2019-03-20T10:26:49.237Z,46.21
2019-03-20T10:29:19.491Z,44.72
2019-03-20T10:31:49.877Z,45.04
2019-03-20T10:34:20.808Z,47.23
2019-03-20T10:36:52.350Z,47.94
2019-03-20T10:39:22.716Z,48.61
2019-03-20T10:41:53.092Z,47.91
2019-03-20T10:44:23.974Z,47.24
2019-03-20T10:46:56.763Z,49.19
2019-03-20T10:49:29.061Z,49.33
2019-03-20T10:51:59.337Z,48.81
2019-03-20T10:54:30.685Z,48.31
2019-03-20T10:57:22.901Z,49.55
2019-03-20T10:59:55.311Z,49.11
2019-03-20T11:02:29.004Z,49.00
2019-03-20T11:05:04.065Z,48.35
2019-03-20T11:07:36.832Z,47.47
2019-03-20T11:10:10.449Z,48.02
2019-03-20T11:12:40.879Z,47.64
2019-03-20T11:15:14.355Z,46.61
2019-03-20T11:17:46.190Z,46.99
2019-03-20T11:20:21.953Z,47.74
2019-03-20T11:22:55.268Z,47.11
2019-03-20T11:25:32.099Z,46.96
2019-03-20T11:28:02.886Z,48.05
2019-03-20T11:30:34.421Z,47.86
2019-03-20T11:33:06.034Z,46.60
2019-03-20T11:35:45.071Z,45.45
2019-03-20T11:38:12.190Z,45.73
2019-03-20T11:40:44.574Z,46.60
2019-03-20T11:43:14.964Z,45.95
2019-03-20T11:45:46.467Z,46.12
2019-03-20T11:48:25.071Z,43.97
2019-03-20T11:50:54.382Z,43.81
2019-03-20T11:53:27.389Z,42.82
2019-03-20T11:55:58.141Z,43.76
2019-03-20T11:58:28.595Z,42.67
2019-03-20T12:01:04.202Z,43.12
2019-03-20T12:03:35.814Z,40.18
2019-03-20T12:06:07.216Z,41.52
2019-03-20T12:08:39.850Z,42.07
2019-03-20T12:11:11.342Z,41.60
2019-03-20T12:13:45.189Z,41.95
2019-03-20T12:16:17.131Z,41.26
2019-03-20T12:18:56.304Z,41.26
2019-03-20T12:21:59.374Z,42.04
2019-03-20T12:24:58.026Z,40.88
2019-03-20T12:27:52.185Z,41.68
2019-03-20T12:30:25.952Z,41.25
2019-03-20T12:33:17.200Z,41.03
2019-03-20T12:36:21.880Z,41.84
2019-03-20T12:46:24.498Z,40.91
2019-03-20T12:49:36.668Z,47.20
2019-03-20T12:56:09.417Z,49.46
2019-03-20T13:05:15.871Z,48.25
2019-03-20T13:08:50.305Z,48.39
2019-03-20T13:11:56.593Z,47.41
2019-03-20T13:15:17.732Z,50.04
2019-03-20T13:35:21.325Z,52.25
2019-03-20T13:38:33.008Z,53.55
2019-03-20T13:41:45.998Z,52.38
2019-03-20T13:44:19.287Z,53.94
2019-03-20T13:46:52.331Z,54.19
2019-03-20T13:49:24.100Z,54.43
2019-03-20T13:51:54.744Z,54.55
2019-03-20T13:54:26.079Z,54.54
2019-03-20T13:57:00.212Z,53.89
2019-03-20T13:59:33.878Z,53.94
2019-03-20T14:02:05.442Z,53.50
2019-03-20T14:04:36.533Z,53.16
2019-03-20T14:07:08.661Z,53.06
2019-03-20T14:09:40.887Z,54.94
2019-03-20T14:12:12.550Z,54.44
2019-03-20T14:14:47.947Z,54.40
2019-03-20T14:17:18.772Z,55.09
2019-03-20T14:19:51.715Z,54.92
2019-03-20T14:22:22.910Z,55.08
2019-03-20T14:24:53.577Z,55.50
2019-03-20T14:27:24.739Z,54.78
2019-03-20T14:30:01.657Z,55.02
2019-03-20T14:32:34.282Z,55.99
2019-03-20T14:35:07.842Z,55.78
2019-03-20T14:37:38.818Z,55.07
2019-03-20T14:40:13.132Z,56.24
2019-03-20T14:42:43.960Z,55.76
2019-03-20T14:45:15.714Z,55.80
2019-03-20T14:47:47.385Z,56.32
2019-03-20T14:50:26.326Z,55.76
2019-03-20T14:52:57.114Z,56.58
2019-03-20T14:55:29.373Z,55.63
2019-03-20T14:58:00.875Z,57.07
2019-03-20T15:00:36.320Z,56.39
2019-03-20T15:03:06.316Z,56.36
2019-03-20T15:05:36.815Z,55.73
2019-03-20T15:08:07.557Z,55.47
2019-03-20T15:10:45.948Z,54.91
2019-03-20T15:13:11.403Z,55.45
2019-03-20T15:15:47.802Z,55.96
2019-03-20T15:18:21.243Z,55.71
2019-03-20T15:20:52.185Z,54.88
2019-03-20T15:23:27.978Z,54.26
2019-03-20T15:26:08.409Z,55.05
2019-03-20T15:28:38.774Z,56.23
2019-03-20T15:31:11.124Z,55.29
2019-03-20T15:33:43.350Z,55.50
2019-03-20T15:36:13.682Z,55.14
2019-03-20T15:38:45.324Z,54.19
2019-03-20T15:41:17.667Z,54.69
2019-03-20T15:43:49.062Z,54.11
2019-03-20T15:46:19.519Z,54.12
2019-03-20T15:48:50.198Z,53.43
2019-03-20T15:51:22.509Z,52.46
2019-03-20T15:53:53.763Z,53.12
2019-03-20T15:56:26.118Z,52.98
2019-03-20T15:58:58.284Z,52.04
2019-03-20T16:01:31.286Z,52.44
2019-03-20T16:04:01.820Z,53.09
2019-03-20T16:06:35.327Z,52.59
2019-03-20T16:09:09.833Z,51.94
2019-03-20T16:11:42.199Z,52.13
2019-03-20T16:14:14.568Z,52.40
2019-03-20T16:16:46.721Z,53.15
2019-03-20T16:19:17.779Z,52.75
2019-03-20T16:21:51.175Z,52.86
2019-03-20T16:24:21.718Z,52.38
2019-03-20T16:26:55.450Z,51.85
2019-03-20T16:29:27.251Z,51.89
2019-03-20T16:31:57.617Z,51.31
2019-03-20T16:34:30.792Z,50.93
2019-03-20T16:37:01.686Z,51.56
2019-03-20T16:39:34.943Z,51.10
2019-03-20T16:42:14.632Z,50.94
2019-03-20T16:44:44.938Z,50.59
2019-03-20T16:47:18.545Z,49.85
2019-03-20T16:49:48.992Z,50.13
2019-03-20T16:52:19.222Z,50.10
2019-03-20T16:54:49.952Z,49.49
2019-03-20T16:57:23.228Z,49.30
2019-03-20T16:59:54.377Z,50.22
2019-03-20T17:02:27.312Z,49.68
2019-03-20T17:04:57.616Z,48.20
2019-03-20T17:07:27.767Z,48.90
2019-03-20T17:10:00.315Z,49.17
2019-03-20T17:12:30.484Z,49.49
2019-03-20T17:15:00.896Z,48.40
2019-03-20T17:17:32.971Z,49.53
2019-03-20T17:20:03.561Z,49.24
2019-03-20T17:23:04.161Z,49.16
2019-03-20T17:29:31.536Z,49.48
2019-03-20T17:32:24.903Z,49.51
2019-03-20T17:35:48.577Z,49.22
2019-03-20T17:42:29.095Z,50.24
2019-03-20T17:48:36.484Z,50.76
2019-03-20T17:51:37.830Z,50.60
2019-03-20T17:57:39.956Z,50.76
2019-03-20T18:00:32.040Z,50.76
2019-03-20T18:03:39.759Z,50.65
2019-03-20T18:06:22.371Z,51.21
2019-03-20T18:09:04.243Z,51.05
2019-03-20T18:11:47.949Z,51.63
2019-03-20T18:14:59.500Z,52.32
2019-03-20T18:17:38.182Z,52.61
2019-03-20T18:20:19.785Z,52.25
2019-03-20T18:22:51.844Z,51.91
2019-03-20T18:25:24.195Z,51.59
2019-03-20T18:27:55.770Z,52.44
2019-03-20T18:30:29.591Z,52.43
2019-03-20T18:33:02.450Z,52.27
2019-03-20T18:35:35.561Z,51.88
2019-03-20T18:38:08.619Z,50.99
2019-03-20T18:40:43.442Z,51.12
2019-03-20T18:43:15.523Z,51.32
2019-03-20T18:45:47.194Z,50.96
2019-03-20T18:48:18.599Z,50.60
2019-03-20T18:51:10.565Z,50.67
2019-03-20T18:53:47.742Z,50.73
2019-03-20T18:56:29.750Z,50.58
2019-03-20T18:59:09.932Z,50.63
2019-03-20T19:01:44.086Z,50.66
2019-03-20T19:04:28.316Z,50.29
2019-03-20T19:07:09.507Z,50.74
2019-03-20T19:09:44.028Z,52.30
2019-03-20T19:12:28.352Z,51.16
2019-03-20T19:15:11.522Z,50.32
2019-03-20T19:17:52.670Z,51.30
2019-03-20T19:20:26.074Z,51.95
2019-03-20T19:23:14.041Z,52.40
2019-03-20T19:25:49.372Z,52.94
2019-03-20T19:28:48.497Z,52.64
2019-03-20T19:35:29.072Z,52.63
2019-03-20T19:38:34.787Z,52.45
2019-03-20T19:41:41.775Z,52.03
2019-03-20T19:45:07.436Z,52.52
2019-03-20T19:48:24.647Z,53.27
2019-03-20T19:51:14.167Z,53.20
2019-03-20T19:54:01.527Z,53.20
2019-03-20T19:56:35.905Z,54.10
2019-03-20T19:59:23.488Z,53.52
2019-03-20T20:02:04.730Z,54.31
2019-03-20T20:04:35.954Z,54.57
2019-03-20T20:07:18.869Z,54.98
2019-03-20T20:09:54.003Z,54.98
2019-03-20T20:12:38.868Z,55.47
2019-03-20T20:15:20.246Z,55.68
2019-03-20T20:18:04.309Z,55.68
2019-03-20T20:20:42.119Z,55.33
2019-03-20T20:23:25.626Z,56.44
2019-03-20T20:26:07.502Z,56.09
2019-03-20T20:28:38.315Z,56.87
2019-03-20T20:31:25.969Z,56.50
2019-03-20T20:34:02.632Z,56.66
2019-03-20T20:36:45.183Z,56.66
2019-03-20T20:39:22.826Z,57.03
2019-03-20T20:42:02.976Z,57.81
2019-03-20T20:44:41.237Z,57.85
2019-03-20T20:47:14.072Z,58.16
2019-03-20T20:49:44.887Z,58.07
2019-03-20T20:52:19.686Z,58.17
2019-03-20T20:54:48.915Z,58.35
2019-03-20T20:57:20.836Z,58.35
2019-03-20T20:59:55.841Z,59.02
2019-03-20T21:02:30.365Z,58.93
2019-03-20T21:05:02.438Z,58.74
2019-03-20T21:07:33.109Z,59.69
2019-03-20T21:10:05.990Z,59.39
2019-03-20T21:12:38.215Z,59.39
2019-03-20T21:15:31.535Z,60.18
2019-03-20T21:18:34.471Z,60.87
2019-03-20T21:21:05.175Z,60.87
2019-03-20T21:24:12.203Z,61.05
2019-03-20T21:27:09.461Z,60.63
2019-03-20T21:29:53.710Z,60.78
2019-03-20T21:32:31.165Z,61.64
2019-03-20T21:35:20.606Z,61.24
2019-03-20T21:38:04.247Z,61.24
2019-03-20T21:40:37.441Z,61.62
2019-03-20T21:43:35.132Z,61.70
2019-03-20T21:46:42.526Z,62.33
2019-03-20T21:49:13.716Z,62.23
2019-03-20T21:51:45.569Z,62.23
2019-03-20T21:54:53.344Z,62.33
2019-03-20T21:57:41.395Z,61.56
2019-03-20T22:00:38.744Z,61.69
2019-03-20T22:03:12.374Z,61.69
2019-03-20T22:05:57.286Z,61.98
2019-03-20T22:08:29.888Z,62.10
2019-03-20T22:11:23.112Z,63.21
2019-03-20T22:14:03.223Z,62.99
2019-03-20T22:16:59.954Z,62.99
2019-03-20T22:19:53.952Z,63.20
2019-03-20T22:22:39.337Z,63.61
2019-03-20T22:42:20.678Z,63.43
2019-03-20T23:15:06.538Z,64.41
2019-03-20T23:18:08.576Z,64.41
2019-03-20T23:21:10.740Z,64.72
2019-03-20T23:24:21.984Z,64.72
